Time;durP1;ratioP1;P1;durP2;ratioP2;P2;SDS_P1;SDS_P2;PMS_P1;PMS_P2;Temp;Humidity;BMP_temperature;BMP_pressure;BME280_temperature;BME280_humidity;BME280_pressure;Samples;Min_cycle;Max_cycle;Signal;HPM_P1;HPM_P2
2023/08/27 00:00:18;;;;;;;10.50;7.72;;;;;;;;;;4876817;29;20675;-83
2023/08/27 00:02:46;;;;;;;6.20;5.60;;;;;;;;;;4876208;29;20212;-85
2023/08/27 00:05:13;;;;;;;7.80;5.35;;;;;;;;;;4877232;29;20206;-82
2023/08/27 00:07:41;;;;;;;6.95;5.32;;;;;;;;;;4876982;29;20296;-82
2023/08/27 00:10:10;;;;;;;5.57;5.07;;;;;;;;;;4876719;29;20301;-84
2023/08/27 00:12:38;;;;;;;5.30;4.72;;;;;;;;;;4877363;29;20289;-84
2023/08/27 00:15:05;;;;;;;7.88;5.38;;;;;;;;;;4876973;29;20244;-82
2023/08/27 00:17:32;;;;;;;5.20;4.65;;;;;;;;;;4876446;29;20211;-83
2023/08/27 00:20:00;;;;;;;4.95;4.55;;;;;;;;;;4876241;29;20337;-82
2023/08/27 00:22:28;;;;;;;6.57;5.35;;;;;;;;;;4876565;29;20215;-83
2023/08/27 00:24:57;;;;;;;5.00;4.60;;;;;;;;;;4877292;29;20213;-83
2023/08/27 00:27:25;;;;;;;7.38;5.93;;;;;;;;;;4876399;29;20778;-82
2023/08/27 00:29:54;;;;;;;8.38;4.75;;;;;;;;;;4876136;29;20277;-83
2023/08/27 00:32:21;;;;;;;9.05;5.00;;;;;;;;;;4876196;29;20237;-82
2023/08/27 00:34:49;;;;;;;6.57;5.65;;;;;;;;;;4876294;29;20293;-83
2023/08/27 00:37:16;;;;;;;5.75;5.25;;;;;;;;;;4874258;29;20268;-83
2023/08/27 00:39:44;;;;;;;5.55;5.05;;;;;;;;;;4875668;29;20288;-84
2023/08/27 00:42:11;;;;;;;7.10;5.80;;;;;;;;;;4878321;29;20258;-82
2023/08/27 00:44:41;;;;;;;6.97;5.88;;;;;;;;;;4875953;29;20209;-84
2023/08/27 00:47:08;;;;;;;6.38;5.32;;;;;;;;;;4875366;29;20508;-83
2023/08/27 00:49:36;;;;;;;5.80;5.15;;;;;;;;;;4876326;29;20201;-82
2023/08/27 00:52:04;;;;;;;5.95;5.38;;;;;;;;;;4888225;29;20243;-84
2023/08/27 00:54:33;;;;;;;4.68;4.30;;;;;;;;;;4894402;29;20264;-83
2023/08/27 00:57:03;;;;;;;5.47;4.97;;;;;;;;;;4894717;29;20661;-83
2023/08/27 00:59:30;;;;;;;5.35;4.95;;;;;;;;;;4894747;29;20244;-82
2023/08/27 01:01:58;;;;;;;6.13;5.10;;;;;;;;;;4885550;29;20210;-83
2023/08/27 01:04:25;;;;;;;5.18;4.70;;;;;;;;;;4892427;29;20564;-82
2023/08/27 01:06:53;;;;;;;6.25;5.65;;;;;;;;;;4894993;29;20269;-82
2023/08/27 01:09:26;;;;;;;7.35;4.72;;;;;;;;;;4893293;29;20281;-82
2023/08/27 01:11:57;;;;;;;4.95;4.55;;;;;;;;;;4894759;29;20257;-82
2023/08/27 01:14:28;;;;;;;8.77;5.43;;;;;;;;;;4894873;29;20240;-82
2023/08/27 01:16:57;;;;;;;6.35;5.13;;;;;;;;;;4893515;29;20692;-82
2023/08/27 01:19:26;;;;;;;5.15;4.60;;;;;;;;;;4895410;29;20237;-82
2023/08/27 01:21:54;;;;;;;5.38;4.88;;;;;;;;;;4893898;29;20209;-83
2023/08/27 01:24:22;;;;;;;8.40;4.97;;;;;;;;;;4894365;29;20292;-82
2023/08/27 01:26:50;;;;;;;7.78;4.80;;;;;;;;;;4894225;29;20626;-82
2023/08/27 01:29:23;;;;;;;5.30;4.80;;;;;;;;;;4894019;29;20300;-83
2023/08/27 01:31:54;;;;;;;7.43;5.03;;;;;;;;;;4893452;29;20784;-82
2023/08/27 01:34:22;;;;;;;6.30;4.93;;;;;;;;;;4893510;29;20239;-82
2023/08/27 01:36:50;;;;;;;6.03;5.43;;;;;;;;;;4893165;29;20220;-82
2023/08/27 01:39:18;;;;;;;6.82;4.82;;;;;;;;;;4893765;29;20208;-82
2023/08/27 01:41:48;;;;;;;9.20;5.15;;;;;;;;;;4894067;29;20220;-82
2023/08/27 01:44:15;;;;;;;6.30;5.32;;;;;;;;;;4892921;29;20228;-83
2023/08/27 01:46:43;;;;;;;6.28;4.38;;;;;;;;;;4894158;29;20312;-83
2023/08/27 01:49:11;;;;;;;5.40;4.90;;;;;;;;;;4894413;29;20212;-82
2023/08/27 01:51:38;;;;;;;6.97;5.25;;;;;;;;;;4893577;29;20605;-83
2023/08/27 01:54:05;;;;;;;5.20;4.70;;;;;;;;;;4893663;29;20241;-82
2023/08/27 01:56:34;;;;;;;5.70;5.05;;;;;;;;;;4893828;29;20550;-82
2023/08/27 01:59:02;;;;;;;7.18;5.15;;;;;;;;;;4893991;29;20665;-81
2023/08/27 02:01:29;;;;;;;9.43;4.88;;;;;;;;;;4898012;29;20216;-83
2023/08/27 02:03:56;;;;;;;5.22;4.65;;;;;;;;;;4897371;29;20535;-82
2023/08/27 02:06:26;;;;;;;7.05;4.95;;;;;;;;;;4897765;29;20569;-83
2023/08/27 02:08:53;;;;;;;7.18;5.18;;;;;;;;;;4897232;29;20229;-82
2023/08/27 02:11:23;;;;;;;6.40;5.13;;;;;;;;;;4897311;29;20209;-83
2023/08/27 02:13:53;;;;;;;5.80;4.95;;;;;;;;;;4897381;29;20212;-82
2023/08/27 02:16:21;;;;;;;6.47;5.07;;;;;;;;;;4897382;29;20212;-82
2023/08/27 02:18:48;;;;;;;4.97;4.38;;;;;;;;;;4897409;29;20232;-83
2023/08/27 02:21:15;;;;;;;5.32;4.82;;;;;;;;;;4896608;29;20213;-84
2023/08/27 02:23:42;;;;;;;7.00;5.53;;;;;;;;;;4897680;29;20295;-83
2023/08/27 02:26:09;;;;;;;5.53;4.88;;;;;;;;;;4896992;29;20233;-83
2023/08/27 02:28:37;;;;;;;8.15;5.20;;;;;;;;;;4897319;29;20205;-82
2023/08/27 02:31:08;;;;;;;5.65;5.15;;;;;;;;;;4897386;29;20241;-83
2023/08/27 02:33:34;;;;;;;10.63;5.28;;;;;;;;;;4896915;29;20208;-83
2023/08/27 02:36:02;;;;;;;8.48;5.20;;;;;;;;;;4896264;29;20725;-83
2023/08/27 02:38:30;;;;;;;5.35;4.88;;;;;;;;;;4896794;29;20207;-83
2023/08/27 02:40:57;;;;;;;5.50;4.88;;;;;;;;;;4897225;29;20666;-82
2023/08/27 02:43:24;;;;;;;7.00;5.03;;;;;;;;;;4897635;29;20580;-82
2023/08/27 02:45:51;;;;;;;6.80;5.15;;;;;;;;;;4897096;29;20212;-82
2023/08/27 02:48:21;;;;;;;6.97;4.30;;;;;;;;;;4897875;29;20209;-83
2023/08/27 02:50:48;;;;;;;7.20;5.13;;;;;;;;;;4896676;29;20212;-83
2023/08/27 02:53:16;;;;;;;5.45;4.38;;;;;;;;;;4898078;29;20212;-82
2023/08/27 02:55:45;;;;;;;5.40;4.43;;;;;;;;;;4897382;29;20240;-82
2023/08/27 02:58:12;;;;;;;6.40;4.93;;;;;;;;;;4897097;29;20619;-81
2023/08/27 03:00:40;;;;;;;5.93;4.75;;;;;;;;;;4896425;29;20268;-83
2023/08/27 03:03:09;;;;;;;10.90;4.80;;;;;;;;;;4897000;29;20255;-82
2023/08/27 03:05:38;;;;;;;6.60;4.45;;;;;;;;;;4897818;29;20216;-82
2023/08/27 03:08:05;;;;;;;6.53;4.05;;;;;;;;;;4900416;29;20212;-82
2023/08/27 03:10:33;;;;;;;5.30;4.82;;;;;;;;;;4899581;29;20818;-82
2023/08/27 03:13:00;;;;;;;11.27;4.57;;;;;;;;;;4895935;29;20205;-84
2023/08/27 03:15:29;;;;;;;7.18;4.82;;;;;;;;;;4896127;29;20315;-82
2023/08/27 03:17:56;;;;;;;9.68;5.40;;;;;;;;;;4895975;29;20268;-83
2023/08/27 03:20:23;;;;;;;7.20;5.03;;;;;;;;;;4896394;29;20216;-83
2023/08/27 03:22:54;;;;;;;5.05;4.63;;;;;;;;;;4896312;29;20216;-83
2023/08/27 03:25:22;;;;;;;7.35;4.93;;;;;;;;;;4896752;29;20200;-83
2023/08/27 03:27:49;;;;;;;7.60;6.55;;;;;;;;;;4894890;29;20227;-85
2023/08/27 03:30:16;;;;;;;5.85;5.25;;;;;;;;;;4895832;29;20722;-82
2023/08/27 03:32:43;;;;;;;10.98;5.28;;;;;;;;;;4895516;29;20212;-83
2023/08/27 03:35:11;;;;;;;7.95;5.10;;;;;;;;;;4895252;29;20752;-83
2023/08/27 03:37:42;;;;;;;4.90;4.43;;;;;;;;;;4897547;29;20208;-83
2023/08/27 03:40:12;;;;;;;6.93;4.93;;;;;;;;;;4899634;29;20207;-83
2023/08/27 03:42:39;;;;;;;6.63;6.00;;;;;;;;;;4899137;29;20322;-83
2023/08/27 03:45:08;;;;;;;11.07;7.97;;;;;;;;;;4896628;29;20341;-84
2023/08/27 03:47:36;;;;;;;13.93;6.90;;;;;;;;;;4896058;29;20655;-82
2023/08/27 03:50:03;;;;;;;8.15;5.40;;;;;;;;;;4894864;29;20673;-83
2023/08/27 03:52:30;;;;;;;11.85;5.22;;;;;;;;;;4895710;29;20205;-83
2023/08/27 03:54:57;;;;;;;8.50;5.18;;;;;;;;;;4878893;29;20271;-82
2023/08/27 03:57:26;;;;;;;7.05;5.57;;;;;;;;;;4895388;29;20205;-81
2023/08/27 03:59:53;;;;;;;8.35;5.32;;;;;;;;;;4895896;29;20318;-83
2023/08/27 04:02:19;;;;;;;8.23;5.13;;;;;;;;;;4895799;29;20271;-84
2023/08/27 04:04:46;;;;;;;9.23;5.55;;;;;;;;;;4894559;29;20550;-82
2023/08/27 04:07:14;;;;;;;8.57;5.15;;;;;;;;;;4895280;29;20315;-83
2023/08/27 04:09:41;;;;;;;8.25;4.70;;;;;;;;;;4895606;29;20289;-82
2023/08/27 04:12:10;;;;;;;5.22;4.72;;;;;;;;;;4894441;29;20208;-82
2023/08/27 04:14:39;;;;;;;5.68;4.93;;;;;;;;;;4878269;29;20201;-82
2023/08/27 04:17:09;;;;;;;5.00;4.47;;;;;;;;;;4894622;29;20631;-83
2023/08/27 04:19:37;;;;;;;5.47;4.97;;;;;;;;;;4895336;29;20205;-83
2023/08/27 04:22:04;;;;;;;5.05;4.43;;;;;;;;;;4895410;29;20212;-83
2023/08/27 04:24:32;;;;;;;8.25;5.45;;;;;;;;;;4896243;29;20207;-83
2023/08/27 04:26:59;;;;;;;7.88;4.40;;;;;;;;;;4895759;29;20255;-82
2023/08/27 04:29:26;;;;;;;5.60;4.95;;;;;;;;;;4896724;29;20268;-83
2023/08/27 04:31:56;;;;;;;5.63;5.05;;;;;;;;;;4901870;29;20256;-83
2023/08/27 04:34:25;;;;;;;4.78;4.47;;;;;;;;;;4914325;29;20212;-82
2023/08/27 04:36:52;;;;;;;4.95;4.65;;;;;;;;;;4895136;29;20220;-84
2023/08/27 04:39:19;;;;;;;5.20;4.72;;;;;;;;;;4896131;29;20204;-83
2023/08/27 04:41:46;;;;;;;6.38;5.60;;;;;;;;;;4896052;29;20209;-83
2023/08/27 04:44:13;;;;;;;7.70;5.68;;;;;;;;;;4895615;29;20201;-83
2023/08/27 04:46:42;;;;;;;5.80;5.38;;;;;;;;;;4895552;29;20565;-82
2023/08/27 04:49:13;;;;;;;4.68;4.38;;;;;;;;;;4895272;29;20204;-82
2023/08/27 04:51:44;;;;;;;6.20;5.65;;;;;;;;;;4893877;29;20209;-81
2023/08/27 04:54:12;;;;;;;5.53;5.05;;;;;;;;;;4894932;29;20205;-83
2023/08/27 04:56:39;;;;;;;9.18;5.45;;;;;;;;;;4894297;29;20706;-82
2023/08/27 04:59:08;;;;;;;6.95;5.93;;;;;;;;;;4893781;29;20687;-83
2023/08/27 05:01:36;;;;;;;6.38;5.35;;;;;;;;;;4893995;29;20589;-83
2023/08/27 05:04:06;;;;;;;5.53;5.13;;;;;;;;;;4893284;29;20205;-82
2023/08/27 05:06:34;;;;;;;6.45;5.75;;;;;;;;;;4894032;29;20571;-83
2023/08/27 05:09:02;;;;;;;5.88;5.38;;;;;;;;;;4894601;29;20224;-83
2023/08/27 05:11:29;;;;;;;6.03;5.45;;;;;;;;;;4894015;29;20641;-82
2023/08/27 05:13:57;;;;;;;5.50;5.10;;;;;;;;;;4894180;29;20204;-82
2023/08/27 05:16:25;;;;;;;7.20;5.45;;;;;;;;;;4893905;29;20333;-83
2023/08/27 05:18:55;;;;;;;5.82;5.38;;;;;;;;;;4893587;29;20213;-82
2023/08/27 05:21:25;;;;;;;5.60;5.20;;;;;;;;;;4894334;29;20203;-82
2023/08/27 05:23:55;;;;;;;7.50;5.95;;;;;;;;;;4894422;29;20212;-82
2023/08/27 05:26:23;;;;;;;5.88;5.35;;;;;;;;;;4893668;29;20265;-82
2023/08/27 05:28:51;;;;;;;6.05;5.55;;;;;;;;;;4893646;29;20211;-82
2023/08/27 05:31:19;;;;;;;5.70;5.30;;;;;;;;;;4894018;29;20313;-83
2023/08/27 05:33:47;;;;;;;5.30;4.90;;;;;;;;;;4893604;29;20689;-83
2023/08/27 05:36:15;;;;;;;5.85;5.25;;;;;;;;;;4897396;29;20239;-83
2023/08/27 05:38:45;;;;;;;7.57;5.78;;;;;;;;;;4898479;29;20200;-83
2023/08/27 05:41:14;;;;;;;6.65;6.00;;;;;;;;;;4896906;29;20652;-84
2023/08/27 05:43:42;;;;;;;5.47;5.07;;;;;;;;;;4898021;29;20287;-83
2023/08/27 05:46:09;;;;;;;5.85;5.30;;;;;;;;;;4897413;29;20631;-84
2023/08/27 05:48:37;;;;;;;6.72;5.45;;;;;;;;;;4897197;29;20227;-84
2023/08/27 05:51:05;;;;;;;5.50;5.10;;;;;;;;;;4898547;29;20215;-82
2023/08/27 05:53:34;;;;;;;6.65;5.07;;;;;;;;;;4897667;29;20204;-84
2023/08/27 05:56:03;;;;;;;5.68;5.18;;;;;;;;;;4896695;29;20262;-82
2023/08/27 05:58:32;;;;;;;6.25;5.70;;;;;;;;;;4880644;29;20279;-82
2023/08/27 06:01:03;;;;;;;5.38;4.95;;;;;;;;;;4897534;29;20204;-83
2023/08/27 06:03:31;;;;;;;5.68;5.00;;;;;;;;;;4896671;29;20246;-84
2023/08/27 06:06:01;;;;;;;5.53;5.00;;;;;;;;;;4898087;29;20678;-83
2023/08/27 06:08:33;;;;;;;9.45;5.63;;;;;;;;;;4897703;29;20672;-84
2023/08/27 06:11:04;;;;;;;5.07;4.68;;;;;;;;;;4897487;29;20208;-83
2023/08/27 06:13:32;;;;;;;10.15;5.10;;;;;;;;;;4897306;29;20231;-84
2023/08/27 06:16:00;;;;;;;7.97;5.00;;;;;;;;;;4897107;29;20634;-83
2023/08/27 06:18:28;;;;;;;5.07;4.68;;;;;;;;;;4896510;29;20291;-83
2023/08/27 06:20:56;;;;;;;5.65;5.15;;;;;;;;;;4896806;29;20204;-82
2023/08/27 06:23:24;;;;;;;6.18;5.68;;;;;;;;;;4897326;29;20283;-83
2023/08/27 06:25:51;;;;;;;5.40;5.00;;;;;;;;;;4896223;29;20630;-82
2023/08/27 06:28:18;;;;;;;5.82;5.43;;;;;;;;;;4897152;29;20250;-83
2023/08/27 06:30:47;;;;;;;5.65;5.20;;;;;;;;;;4896121;29;20461;-82
2023/08/27 06:33:17;;;;;;;6.75;5.25;;;;;;;;;;4896356;29;20208;-82
2023/08/27 06:35:46;;;;;;;6.03;5.43;;;;;;;;;;4896076;29;20609;-84
2023/08/27 06:38:14;;;;;;;6.30;5.68;;;;;;;;;;4897218;29;20222;-82
2023/08/27 06:40:41;;;;;;;5.80;5.00;;;;;;;;;;4896723;29;20207;-82
2023/08/27 06:43:09;;;;;;;8.60;5.28;;;;;;;;;;4897607;29;20626;-82
2023/08/27 06:45:38;;;;;;;5.43;5.00;;;;;;;;;;4896406;29;20197;-81
2023/08/27 06:48:08;;;;;;;7.75;5.40;;;;;;;;;;4896499;29;20207;-82
2023/08/27 06:50:35;;;;;;;5.50;5.05;;;;;;;;;;4880467;29;20347;-83
2023/08/27 06:53:04;;;;;;;5.28;4.88;;;;;;;;;;4896994;29;20207;-83
2023/08/27 06:55:31;;;;;;;5.57;4.90;;;;;;;;;;4892527;29;20721;-84
2023/08/27 06:57:59;;;;;;;4.70;4.50;;;;;;;;;;4895880;29;20646;-82
2023/08/27 07:00:28;;;;;;;5.40;5.00;;;;;;;;;;4897075;29;20209;-83
2023/08/27 07:02:55;;;;;;;4.90;4.60;;;;;;;;;;4895990;29;20242;-83
2023/08/27 07:05:24;;;;;;;5.32;4.88;;;;;;;;;;4896549;29;20212;-82
2023/08/27 07:07:54;;;;;;;5.25;4.90;;;;;;;;;;4895976;29;20196;-84
2023/08/27 07:10:22;;;;;;;5.80;4.40;;;;;;;;;;4885353;29;20236;-82
2023/08/27 07:12:49;;;;;;;4.90;4.50;;;;;;;;;;4882436;29;20209;-82
2023/08/27 07:15:16;;;;;;;6.25;4.40;;;;;;;;;;4882794;29;20215;-82
2023/08/27 07:17:43;;;;;;;5.15;4.85;;;;;;;;;;4885655;29;20292;-82
2023/08/27 07:20:11;;;;;;;3.95;3.78;;;;;;;;;;4886683;29;20232;-83
2023/08/27 07:22:39;;;;;;;6.50;4.35;;;;;;;;;;4880567;29;20209;-82
2023/08/27 07:25:08;;;;;;;4.50;4.15;;;;;;;;;;4878711;29;20260;-81
2023/08/27 07:27:37;;;;;;;4.57;4.20;;;;;;;;;;4876949;29;20213;-82
2023/08/27 07:30:06;;;;;;;4.70;4.40;;;;;;;;;;4865504;29;20317;-84
2023/08/27 07:32:33;;;;;;;4.75;4.45;;;;;;;;;;4875695;29;20223;-83
2023/08/27 07:35:03;;;;;;;4.10;3.90;;;;;;;;;;4877408;29;20247;-82
2023/08/27 07:37:31;;;;;;;3.95;3.70;;;;;;;;;;4875844;29;20237;-82
2023/08/27 07:40:01;;;;;;;4.28;3.97;;;;;;;;;;4876864;29;20215;-83
2023/08/27 07:42:30;;;;;;;3.80;3.40;;;;;;;;;;4877062;29;20591;-84
2023/08/27 07:45:03;;;;;;;5.55;4.80;;;;;;;;;;4877295;29;20297;-84
2023/08/27 07:47:37;;;;;;;4.15;3.95;;;;;;;;;;4876008;29;20233;-83
2023/08/27 07:50:06;;;;;;;4.80;4.50;;;;;;;;;;4876964;29;20304;-84
2023/08/27 07:52:34;;;;;;;4.30;4.10;;;;;;;;;;4875323;29;20257;-84
2023/08/27 07:55:05;;;;;;;4.97;4.45;;;;;;;;;;4875178;29;20237;-83
2023/08/27 07:57:33;;;;;;;4.28;4.07;;;;;;;;;;4874277;29;20416;-82
2023/08/27 08:00:01;;;;;;;5.40;4.88;;;;;;;;;;4874814;29;20232;-83
2023/08/27 08:02:32;;;;;;;5.80;5.00;;;;;;;;;;4873849;29;20240;-83
2023/08/27 08:05:01;;;;;;;5.03;4.10;;;;;;;;;;4875263;29;20241;-83
2023/08/27 08:07:28;;;;;;;4.82;4.53;;;;;;;;;;4873910;29;20256;-82
2023/08/27 08:09:56;;;;;;;4.55;4.25;;;;;;;;;;4870261;29;20322;-81
2023/08/27 08:12:25;;;;;;;4.80;4.40;;;;;;;;;;4881023;29;20232;-81
2023/08/27 08:14:53;;;;;;;4.38;4.18;;;;;;;;;;4877232;29;20232;-82
2023/08/27 08:17:19;;;;;;;5.05;4.68;;;;;;;;;;4875048;29;20244;-81
2023/08/27 08:19:48;;;;;;;4.72;4.38;;;;;;;;;;4872445;29;20247;-81
2023/08/27 08:22:15;;;;;;;4.65;4.30;;;;;;;;;;4874540;29;20244;-82
2023/08/27 08:24:42;;;;;;;4.50;4.20;;;;;;;;;;4874745;29;20610;-82
2023/08/27 08:27:08;;;;;;;4.97;4.57;;;;;;;;;;4875087;29;20248;-84
2023/08/27 08:29:37;;;;;;;4.75;4.25;;;;;;;;;;4873567;29;20232;-80
2023/08/27 08:32:06;;;;;;;4.78;4.38;;;;;;;;;;4873756;29;20662;-82
2023/08/27 08:34:34;;;;;;;5.22;4.47;;;;;;;;;;4874371;29;20260;-83
2023/08/27 08:37:05;;;;;;;6.93;4.30;;;;;;;;;;4857952;29;20251;-82
2023/08/27 08:39:34;;;;;;;4.55;4.15;;;;;;;;;;4872982;29;20690;-83
2023/08/27 08:42:04;;;;;;;5.75;4.35;;;;;;;;;;4876835;29;20682;-82
2023/08/27 08:44:37;;;;;;;4.63;4.32;;;;;;;;;;4857824;29;20239;-82
2023/08/27 08:47:10;;;;;;;5.93;3.95;;;;;;;;;;4881060;29;20367;-82
2023/08/27 08:49:40;;;;;;;4.22;3.83;;;;;;;;;;4891739;29;20312;-83
2023/08/27 08:52:09;;;;;;;4.72;4.30;;;;;;;;;;4892951;29;20228;-83
2023/08/27 08:54:37;;;;;;;4.45;4.15;;;;;;;;;;4892197;29;20224;-82
2023/08/27 08:57:05;;;;;;;4.13;3.78;;;;;;;;;;4892321;29;20244;-84
2023/08/27 08:59:33;;;;;;;4.70;4.40;;;;;;;;;;4891323;29;20254;-82
2023/08/27 09:02:05;;;;;;;4.18;3.97;;;;;;;;;;4892106;29;20228;-83
2023/08/27 09:04:36;;;;;;;4.25;3.88;;;;;;;;;;4892669;29;20236;-82
2023/08/27 09:07:05;;;;;;;5.10;4.60;;;;;;;;;;4893545;29;20704;-84
2023/08/27 09:09:33;;;;;;;5.80;3.97;;;;;;;;;;4891441;29;20258;-82
2023/08/27 09:12:02;;;;;;;4.15;3.78;;;;;;;;;;4892779;29;20387;-84
2023/08/27 09:14:31;;;;;;;3.78;3.58;;;;;;;;;;4890172;29;20227;-82
2023/08/27 09:16:58;;;;;;;3.85;3.65;;;;;;;;;;4891781;29;20239;-84
2023/08/27 09:19:25;;;;;;;4.13;3.83;;;;;;;;;;4892049;29;20235;-82
2023/08/27 09:21:54;;;;;;;4.13;3.70;;;;;;;;;;4891618;29;20619;-84
2023/08/27 09:24:22;;;;;;;3.72;3.53;;;;;;;;;;4891324;29;20315;-82
2023/08/27 09:26:51;;;;;;;6.15;3.97;;;;;;;;;;4892241;29;20236;-83
2023/08/27 09:29:18;;;;;;;3.13;2.92;;;;;;;;;;4891314;29;20236;-81
2023/08/27 09:31:46;;;;;;;5.72;3.67;;;;;;;;;;4890999;29;20232;-82
2023/08/27 09:34:16;;;;;;;3.25;2.90;;;;;;;;;;4891903;29;20234;-83
2023/08/27 09:36:44;;;;;;;3.17;2.97;;;;;;;;;;4892129;29;20240;-84
2023/08/27 09:39:13;;;;;;;3.38;2.60;;;;;;;;;;4891551;29;20618;-83
2023/08/27 09:41:44;;;;;;;3.38;3.17;;;;;;;;;;4890104;29;20236;-84
2023/08/27 09:44:13;;;;;;;2.97;2.83;;;;;;;;;;4891157;29;20228;-81
2023/08/27 09:46:40;;;;;;;3.40;3.00;;;;;;;;;;4885199;29;20221;-82
2023/08/27 09:49:09;;;;;;;3.55;3.25;;;;;;;;;;4874206;29;20256;-83
2023/08/27 09:51:37;;;;;;;3.70;3.40;;;;;;;;;;4871596;29;20718;-82
2023/08/27 09:54:15;;;;;;;4.30;3.05;;;;;;;;;;4873345;29;20316;-83
2023/08/27 09:56:46;;;;;;;4.38;3.08;;;;;;;;;;4872791;29;20331;-83
2023/08/27 09:59:17;;;;;;;3.15;3.05;;;;;;;;;;4872703;29;20224;-82
2023/08/27 10:01:46;;;;;;;3.88;3.67;;;;;;;;;;4873476;29;20732;-82
2023/08/27 10:04:17;;;;;;;3.13;3.03;;;;;;;;;;4873421;29;20319;-82
2023/08/27 10:06:44;;;;;;;3.40;3.10;;;;;;;;;;4872884;29;20752;-82
2023/08/27 10:09:11;;;;;;;6.53;3.42;;;;;;;;;;4873406;29;20336;-82
2023/08/27 10:11:42;;;;;;;3.53;3.05;;;;;;;;;;4870536;29;20718;-83
2023/08/27 10:14:10;;;;;;;3.92;3.20;;;;;;;;;;4875453;29;20217;-81
2023/08/27 10:16:40;;;;;;;5.43;3.30;;;;;;;;;;4878879;29;20232;-80
2023/08/27 10:19:12;;;;;;;3.05;2.95;;;;;;;;;;4893712;29;20664;-80
2023/08/27 10:21:39;;;;;;;3.15;2.85;;;;;;;;;;4897738;29;20498;-80
2023/08/27 10:24:07;;;;;;;3.83;3.63;;;;;;;;;;4895386;29;20636;-80
2023/08/27 10:26:34;;;;;;;5.75;3.55;;;;;;;;;;4894838;29;20242;-81
2023/08/27 10:29:04;;;;;;;3.35;3.08;;;;;;;;;;4895567;29;20240;-80
2023/08/27 10:31:31;;;;;;;3.13;2.92;;;;;;;;;;4894234;29;20247;-80
2023/08/27 10:34:01;;;;;;;3.35;3.10;;;;;;;;;;4895269;29;20320;-83
2023/08/27 10:36:33;;;;;;;2.88;2.72;;;;;;;;;;4895004;29;20224;-83
2023/08/27 10:39:02;;;;;;;3.05;2.85;;;;;;;;;;4894899;29;20228;-82
2023/08/27 10:41:30;;;;;;;3.35;3.15;;;;;;;;;;4894767;29;20236;-82
2023/08/27 10:44:01;;;;;;;3.33;3.03;;;;;;;;;;4894693;29;20307;-83
2023/08/27 10:46:29;;;;;;;3.15;2.95;;;;;;;;;;4893585;29;20706;-82
2023/08/27 10:48:57;;;;;;;3.17;2.97;;;;;;;;;;4895172;29;20346;-82
2023/08/27 10:51:28;;;;;;;5.60;2.80;;;;;;;;;;4873547;29;20260;-82
2023/08/27 10:53:57;;;;;;;7.20;3.05;;;;;;;;;;4875340;29;20237;-83
2023/08/27 10:56:29;;;;;;;3.10;2.78;;;;;;;;;;4859506;29;20351;-82
2023/08/27 10:58:59;;;;;;;3.92;3.33;;;;;;;;;;4874683;29;20296;-82
2023/08/27 11:01:26;;;;;;;3.15;2.97;;;;;;;;;;4875198;29;20237;-82
2023/08/27 11:04:02;;;;;;;3.60;2.75;;;;;;;;;;4875822;29;20233;-82
2023/08/27 11:06:31;;;;;;;3.03;2.92;;;;;;;;;;4875399;29;20293;-83
2023/08/27 11:09:00;;;;;;;4.35;2.70;;;;;;;;;;4875417;29;20275;-82
2023/08/27 11:11:28;;;;;;;3.05;2.95;;;;;;;;;;4875030;29;20652;-82
2023/08/27 11:14:08;;;;;;;3.38;3.05;;;;;;;;;;4873649;29;20715;-83
2023/08/27 11:16:43;;;;;;;5.68;3.25;;;;;;;;;;4879506;29;20228;-83
2023/08/27 11:19:12;;;;;;;2.50;2.40;;;;;;;;;;4894636;29;20240;-81
2023/08/27 11:21:48;;;;;;;3.42;2.80;;;;;;;;;;4894688;29;20232;-82
2023/08/27 11:24:18;;;;;;;2.30;2.20;;;;;;;;;;4895359;29;20588;-81
2023/08/27 11:26:47;;;;;;;3.05;2.85;;;;;;;;;;4896084;29;20578;-81
2023/08/27 11:29:14;;;;;;;3.70;3.08;;;;;;;;;;4893147;29;20689;-81
2023/08/27 11:31:41;;;;;;;3.00;2.80;;;;;;;;;;4893678;29;20604;-82
2023/08/27 11:34:08;;;;;;;3.25;3.05;;;;;;;;;;4894330;29;20557;-81
2023/08/27 11:36:38;;;;;;;2.92;2.72;;;;;;;;;;4893220;29;20236;-82
2023/08/27 11:39:07;;;;;;;3.15;2.85;;;;;;;;;;4894297;29;20237;-81
2023/08/27 11:41:35;;;;;;;8.20;3.72;;;;;;;;;;4894136;29;20236;-81
2023/08/27 11:44:02;;;;;;;2.90;2.70;;;;;;;;;;4892593;29;20706;-81
2023/08/27 11:46:29;;;;;;;3.28;3.08;;;;;;;;;;4893734;29;20228;-83
2023/08/27 11:48:56;;;;;;;3.13;3.03;;;;;;;;;;4893731;29;20265;-81
2023/08/27 11:51:23;;;;;;;3.13;2.90;;;;;;;;;;4879808;29;20239;-81
2023/08/27 11:53:53;;;;;;;6.70;3.17;;;;;;;;;;4874834;29;20333;-82
2023/08/27 11:56:21;;;;;;;3.30;3.10;;;;;;;;;;4873921;29;20237;-81
2023/08/27 11:58:51;;;;;;;6.38;3.03;;;;;;;;;;4874096;29;20269;-80
2023/08/27 12:01:18;;;;;;;2.22;2.13;;;;;;;;;;4874390;29;20233;-81
2023/08/27 12:03:45;;;;;;;3.20;3.10;;;;;;;;;;4872533;29;20458;-81
2023/08/27 12:06:16;;;;;;;2.83;2.60;;;;;;;;;;4884654;29;20662;-81
2023/08/27 12:08:43;;;;;;;3.53;3.25;;;;;;;;;;4893917;29;20267;-81
2023/08/27 12:11:12;;;;;;;4.05;2.90;;;;;;;;;;4891595;29;20690;-82
2023/08/27 12:13:40;;;;;;;2.88;2.72;;;;;;;;;;4873986;29;20683;-81
2023/08/27 12:16:07;;;;;;;4.60;3.08;;;;;;;;;;4874898;29;20300;-81
2023/08/27 12:18:36;;;;;;;2.90;2.72;;;;;;;;;;4892266;29;21025;-82
2023/08/27 12:21:07;;;;;;;3.15;2.70;;;;;;;;;;4893445;29;20236;-82
2023/08/27 12:23:34;;;;;;;3.30;3.05;;;;;;;;;;4892613;29;20722;-81
2023/08/27 12:26:03;;;;;;;3.65;3.45;;;;;;;;;;4893232;29;20248;-80
2023/08/27 12:28:33;;;;;;;2.53;2.40;;;;;;;;;;4892013;29;20231;-81
2023/08/27 12:31:00;;;;;;;3.65;3.13;;;;;;;;;;4891872;29;20260;-80
2023/08/27 12:33:37;;;;;;;3.50;2.75;;;;;;;;;;4893485;29;20239;-81
2023/08/27 12:36:09;;;;;;;5.28;2.60;;;;;;;;;;4891703;29;20319;-81
2023/08/27 12:38:36;;;;;;;2.78;2.60;;;;;;;;;;4893288;29;20331;-81
2023/08/27 12:41:05;;;;;;;2.70;2.50;;;;;;;;;;4893754;29;20248;-82
2023/08/27 12:43:33;;;;;;;3.95;3.40;;;;;;;;;;4871981;29;20224;-82
2023/08/27 12:46:00;;;;;;;2.88;2.53;;;;;;;;;;4874082;29;20316;-81
2023/08/27 12:48:27;;;;;;;2.45;2.30;;;;;;;;;;4892370;29;20235;-81
2023/08/27 12:50:55;;;;;;;4.55;3.08;;;;;;;;;;4890628;29;20254;-82
2023/08/27 12:53:22;;;;;;;2.63;2.42;;;;;;;;;;4892112;29;20683;-82
2023/08/27 12:55:49;;;;;;;2.75;2.55;;;;;;;;;;4890929;29;20615;-80
2023/08/27 12:58:17;;;;;;;2.67;2.58;;;;;;;;;;4891502;29;20793;-81
2023/08/27 13:00:46;;;;;;;3.00;2.70;;;;;;;;;;4892263;29;20756;-81
2023/08/27 13:03:14;;;;;;;3.75;2.63;;;;;;;;;;4892662;29;20632;-81
2023/08/27 13:05:42;;;;;;;2.97;2.67;;;;;;;;;;4891495;29;20228;-80
2023/08/27 13:08:09;;;;;;;2.55;2.35;;;;;;;;;;4892699;29;20651;-82
2023/08/27 13:10:37;;;;;;;3.10;2.83;;;;;;;;;;4892414;29;20228;-80
2023/08/27 13:13:04;;;;;;;3.47;3.15;;;;;;;;;;4892131;29;20232;-81
2023/08/27 13:15:31;;;;;;;3.25;2.60;;;;;;;;;;4893194;29;20620;-80
2023/08/27 13:18:00;;;;;;;2.88;2.38;;;;;;;;;;4893013;29;20259;-80
2023/08/27 13:20:27;;;;;;;2.10;2.00;;;;;;;;;;4892658;29;20228;-80
2023/08/27 13:22:54;;;;;;;2.28;2.17;;;;;;;;;;4891521;29;20259;-80
2023/08/27 13:25:21;;;;;;;3.83;2.17;;;;;;;;;;4892378;29;20283;-80
2023/08/27 13:27:49;;;;;;;2.50;2.38;;;;;;;;;;4878439;29;20232;-80
2023/08/27 13:30:16;;;;;;;2.53;2.33;;;;;;;;;;4881060;29;20725;-81
2023/08/27 13:32:43;;;;;;;2.22;2.13;;;;;;;;;;4875303;29;20323;-80
2023/08/27 13:35:11;;;;;;;2.53;2.28;;;;;;;;;;4873396;29;20237;-79
2023/08/27 13:37:38;;;;;;;3.55;2.00;;;;;;;;;;4874256;29;20248;-80
2023/08/27 13:40:05;;;;;;;1.70;1.60;;;;;;;;;;4873141;29;20229;-81
2023/08/27 13:42:34;;;;;;;2.50;2.28;;;;;;;;;;4872361;29;20356;-81
2023/08/27 13:45:01;;;;;;;3.45;2.50;;;;;;;;;;4873018;29;20294;-81
2023/08/27 13:47:29;;;;;;;1.83;1.83;;;;;;;;;;4879289;29;20247;-82
2023/08/27 13:49:55;;;;;;;5.60;2.25;;;;;;;;;;4893447;29;20237;-80
2023/08/27 13:52:24;;;;;;;1.90;1.70;;;;;;;;;;4893328;29;20236;-81
2023/08/27 13:54:52;;;;;;;1.70;1.60;;;;;;;;;;4894085;29;20229;-81
2023/08/27 13:57:19;;;;;;;1.70;1.63;;;;;;;;;;4894849;29;20231;-82
2023/08/27 13:59:46;;;;;;;2.00;1.85;;;;;;;;;;4895860;29;20260;-82
2023/08/27 14:02:13;;;;;;;2.63;2.08;;;;;;;;;;4895718;29;20298;-82
2023/08/27 14:04:40;;;;;;;2.47;1.80;;;;;;;;;;4895550;29;20232;-81
2023/08/27 14:07:08;;;;;;;1.85;1.75;;;;;;;;;;4895222;29;20236;-81
2023/08/27 14:09:40;;;;;;;1.58;1.48;;;;;;;;;;4895887;29;20304;-83
2023/08/27 14:12:07;;;;;;;1.95;1.80;;;;;;;;;;4894989;29;20714;-81
2023/08/27 14:14:35;;;;;;;2.20;1.70;;;;;;;;;;4885004;29;20238;-82
2023/08/27 14:17:05;;;;;;;1.65;1.60;;;;;;;;;;4884152;29;20292;-83
2023/08/27 14:19:31;;;;;;;1.80;1.55;;;;;;;;;;4894911;29;20615;-82
2023/08/27 14:21:58;;;;;;;5.55;1.83;;;;;;;;;;4895200;29;20233;-83
2023/08/27 14:24:25;;;;;;;3.83;1.65;;;;;;;;;;4894731;29;20616;-83
2023/08/27 14:26:54;;;;;;;1.80;1.70;;;;;;;;;;4893996;29;20228;-84
2023/08/27 14:29:21;;;;;;;2.00;1.90;;;;;;;;;;4893994;29;20392;-83
2023/08/27 14:31:48;;;;;;;3.75;2.92;;;;;;;;;;4895355;29;20622;-81
2023/08/27 14:34:15;;;;;;;2.05;1.70;;;;;;;;;;4894494;29;20239;-81
2023/08/27 14:36:43;;;;;;;2.38;2.20;;;;;;;;;;4895613;29;20225;-82
2023/08/27 14:39:11;;;;;;;2.83;1.92;;;;;;;;;;4893887;29;20241;-82
2023/08/27 14:41:39;;;;;;;2.20;2.00;;;;;;;;;;4894162;29;20287;-81
2023/08/27 14:44:08;;;;;;;1.60;1.60;;;;;;;;;;4894316;29;20769;-81
2023/08/27 14:46:37;;;;;;;3.13;1.90;;;;;;;;;;4894688;29;20243;-82
2023/08/27 14:49:04;;;;;;;1.50;1.40;;;;;;;;;;4894453;29;20265;-84